createdAt,value
2023-04-29T00:01:20.439Z,1.45
2023-04-29T00:03:41.071Z,1.40
2023-04-29T00:06:01.492Z,2.15
2023-04-29T00:08:24.178Z,1.85
2023-04-29T00:10:44.669Z,1.50
2023-04-29T00:13:04.772Z,1.67
2023-04-29T00:15:25.015Z,2.28
2023-04-29T00:17:45.620Z,1.70
2023-04-29T00:20:06.936Z,1.33
2023-04-29T00:22:27.342Z,1.58
2023-04-29T00:24:48.005Z,1.80
2023-04-29T00:27:08.423Z,1.85
2023-04-29T00:29:28.907Z,1.50
2023-04-29T00:31:49.642Z,1.60
2023-04-29T00:34:10.069Z,1.80
2023-04-29T00:36:31.806Z,1.52
2023-04-29T00:38:51.849Z,2.05
2023-04-29T00:41:12.315Z,1.67
2023-04-29T00:43:32.309Z,1.90
2023-04-29T00:45:53.638Z,2.15
2023-04-29T00:48:16.702Z,1.70
2023-04-29T00:50:37.325Z,1.95
2023-04-29T00:52:57.406Z,1.83
2023-04-29T00:55:18.064Z,1.95
2023-04-29T00:57:38.757Z,2.03
2023-04-29T00:59:59.046Z,2.42
2023-04-29T01:02:19.675Z,3.15
2023-04-29T01:04:39.943Z,2.08
2023-04-29T01:07:03.724Z,2.13
2023-04-29T01:09:29.873Z,1.52
2023-04-29T01:12:10.530Z,1.63
2023-04-29T01:14:32.908Z,1.95
2023-04-29T01:16:56.967Z,1.70
2023-04-29T01:19:20.357Z,1.92
2023-04-29T01:21:50.048Z,2.00
2023-04-29T01:24:10.384Z,1.83
2023-04-29T01:26:32.191Z,1.92
2023-04-29T01:29:09.156Z,2.53
2023-04-29T01:31:36.892Z,1.67
2023-04-29T01:34:17.725Z,1.92
2023-04-29T01:36:41.078Z,1.85
2023-04-29T01:39:12.428Z,2.55
2023-04-29T01:41:41.249Z,1.83
2023-04-29T01:44:03.628Z,2.00
2023-04-29T01:46:24.325Z,1.90
2023-04-29T01:48:44.536Z,1.77
2023-04-29T01:51:06.495Z,2.05
2023-04-29T01:53:27.087Z,1.87
2023-04-29T01:55:48.320Z,1.90
2023-04-29T01:58:08.611Z,2.10
2023-04-29T02:00:28.887Z,1.83
2023-04-29T02:02:49.265Z,2.13
2023-04-29T02:05:09.537Z,1.83
2023-04-29T02:07:30.400Z,2.30
2023-04-29T02:09:50.683Z,2.42
2023-04-29T02:12:11.356Z,2.15
2023-04-29T02:14:32.528Z,1.88
2023-04-29T02:16:52.672Z,2.10
2023-04-29T02:19:13.281Z,2.50
2023-04-29T02:21:34.513Z,2.13
2023-04-29T02:23:54.771Z,2.10
2023-04-29T02:26:14.961Z,2.00
2023-04-29T02:28:35.224Z,2.50
2023-04-29T02:30:55.377Z,2.58
2023-04-29T02:33:16.077Z,2.22
2023-04-29T02:35:36.641Z,2.17
2023-04-29T02:37:56.823Z,2.58
2023-04-29T02:40:17.068Z,2.40
2023-04-29T02:42:37.679Z,1.70
2023-04-29T02:44:58.196Z,2.80
2023-04-29T02:47:18.406Z,2.35
2023-04-29T02:49:38.646Z,2.63
2023-04-29T02:51:59.007Z,3.03
2023-04-29T02:54:19.230Z,2.47
2023-04-29T02:56:39.606Z,2.60
2023-04-29T02:58:59.840Z,3.40
2023-04-29T03:01:19.959Z,2.92
2023-04-29T03:03:40.524Z,2.85
2023-04-29T03:06:00.971Z,3.20
2023-04-29T03:08:21.593Z,2.22
2023-04-29T03:10:42.213Z,3.10
2023-04-29T03:13:02.815Z,3.42
2023-04-29T03:15:23.060Z,2.58
2023-04-29T03:17:45.783Z,2.38
2023-04-29T03:20:07.206Z,2.65
2023-04-29T03:22:27.513Z,2.15
2023-04-29T03:24:47.664Z,2.30
2023-04-29T03:27:08.037Z,2.47
2023-04-29T03:29:28.283Z,1.70
2023-04-29T03:31:48.812Z,2.50
2023-04-29T03:34:09.736Z,2.35
2023-04-29T03:36:30.342Z,2.60
2023-04-29T03:38:50.644Z,2.78
2023-04-29T03:41:10.732Z,2.45
2023-04-29T03:43:30.993Z,3.35
2023-04-29T03:45:51.083Z,3.33
2023-04-29T03:48:11.959Z,3.08
2023-04-29T03:50:32.328Z,3.13
2023-04-29T03:52:52.900Z,3.20
2023-04-29T03:55:12.935Z,2.75
2023-04-29T03:57:33.068Z,2.65
2023-04-29T03:59:53.567Z,3.35
2023-04-29T04:02:14.272Z,3.05
2023-04-29T04:04:34.636Z,2.35
2023-04-29T04:06:55.221Z,3.28
2023-04-29T04:09:15.409Z,2.85
2023-04-29T04:11:35.839Z,2.78
2023-04-29T04:13:55.850Z,3.35
2023-04-29T04:16:16.296Z,2.97
2023-04-29T04:18:36.883Z,3.05
2023-04-29T04:20:56.682Z,2.28
2023-04-29T04:23:16.986Z,3.03
2023-04-29T04:25:37.816Z,2.72
2023-04-29T04:27:58.303Z,2.97
2023-04-29T04:30:18.830Z,3.17
2023-04-29T04:32:40.146Z,2.65
2023-04-29T04:35:00.179Z,3.95
2023-04-29T04:37:20.451Z,3.08
2023-04-29T04:39:40.590Z,2.97
2023-04-29T04:42:03.124Z,2.90
2023-04-29T04:44:23.420Z,2.78
2023-04-29T04:46:43.493Z,3.03
2023-04-29T04:49:03.632Z,2.90
2023-04-29T04:51:23.774Z,3.10
2023-04-29T04:53:43.784Z,2.40
2023-04-29T04:56:04.346Z,2.80
2023-04-29T04:58:25.978Z,3.47
2023-04-29T05:00:46.277Z,2.75
2023-04-29T05:03:06.557Z,3.30
2023-04-29T05:05:27.406Z,3.75
2023-04-29T05:07:47.751Z,3.78
2023-04-29T05:10:08.001Z,2.70
2023-04-29T05:12:30.219Z,2.88
2023-04-29T05:14:53.030Z,3.30
2023-04-29T05:17:13.508Z,3.05
2023-04-29T05:19:33.587Z,3.17
2023-04-29T05:21:53.826Z,3.17
2023-04-29T05:24:14.742Z,3.20
2023-04-29T05:26:35.461Z,3.35
2023-04-29T05:28:55.569Z,3.20
2023-04-29T05:31:15.939Z,2.50
2023-04-29T05:33:36.476Z,3.83
2023-04-29T05:35:56.609Z,4.00
2023-04-29T05:38:16.919Z,3.50
2023-04-29T05:40:37.720Z,3.80
2023-04-29T05:42:58.276Z,4.07
2023-04-29T05:45:18.176Z,3.65
2023-04-29T05:47:38.417Z,3.72
2023-04-29T05:49:58.601Z,3.17
2023-04-29T05:52:18.946Z,3.78
2023-04-29T05:54:38.965Z,3.17
2023-04-29T05:57:01.658Z,3.38
2023-04-29T05:59:21.835Z,3.08
2023-04-29T06:01:42.299Z,2.90
2023-04-29T06:04:02.546Z,3.05
2023-04-29T06:06:23.218Z,2.80
2023-04-29T06:08:43.066Z,2.92
2023-04-29T06:11:04.656Z,3.30
2023-04-29T06:13:25.720Z,3.30
2023-04-29T06:15:46.269Z,2.55
2023-04-29T06:18:06.549Z,2.80
2023-04-29T06:20:27.004Z,2.53
2023-04-29T06:22:47.217Z,2.85
2023-04-29T06:25:07.241Z,2.80
2023-04-29T06:27:27.545Z,3.10
2023-04-29T06:29:47.553Z,2.50
2023-04-29T06:32:08.098Z,2.50
2023-04-29T06:34:28.403Z,2.47
2023-04-29T06:36:48.673Z,2.53
2023-04-29T06:39:08.716Z,3.00
2023-04-29T06:41:31.449Z,2.45
2023-04-29T06:43:51.623Z,2.20
2023-04-29T06:46:12.489Z,2.85
2023-04-29T06:48:32.727Z,2.53
2023-04-29T06:50:57.288Z,2.08
2023-04-29T06:53:17.468Z,2.47
2023-04-29T06:55:37.640Z,2.00
2023-04-29T06:57:57.904Z,1.83
2023-04-29T07:00:20.405Z,1.67
2023-04-29T07:02:40.806Z,1.80
2023-04-29T07:05:00.859Z,2.10
2023-04-29T07:07:20.885Z,1.42
2023-04-29T07:09:41.055Z,1.83
2023-04-29T07:12:02.053Z,2.00
2023-04-29T07:14:22.420Z,1.83
2023-04-29T07:16:42.556Z,2.05
2023-04-29T07:19:02.652Z,1.30
2023-04-29T07:21:22.878Z,1.95
2023-04-29T07:23:42.899Z,1.30
2023-04-29T07:26:13.133Z,1.20
2023-04-29T07:28:33.273Z,1.10
2023-04-29T07:30:53.692Z,1.50
2023-04-29T07:33:14.237Z,1.30
2023-04-29T07:35:34.445Z,1.20
2023-04-29T07:37:55.632Z,1.20
2023-04-29T07:40:15.763Z,1.20
2023-04-29T07:42:35.879Z,1.17
2023-04-29T07:44:56.189Z,1.50
2023-04-29T07:47:16.401Z,1.83
2023-04-29T07:49:36.853Z,1.40
2023-04-29T07:51:57.497Z,1.10
2023-04-29T07:54:18.981Z,1.30
2023-04-29T07:56:39.046Z,1.52
2023-04-29T07:59:00.854Z,1.20
2023-04-29T08:01:21.405Z,1.20
2023-04-29T08:03:42.329Z,1.30
2023-04-29T08:06:03.391Z,1.10
2023-04-29T08:08:23.955Z,1.80
2023-04-29T08:10:44.188Z,1.30
2023-04-29T08:13:04.563Z,1.00
2023-04-29T08:15:24.631Z,1.10
2023-04-29T08:17:45.265Z,1.10
2023-04-29T08:20:07.552Z,1.33
2023-04-29T08:22:28.256Z,1.30
2023-04-29T08:24:48.760Z,1.30
2023-04-29T08:27:09.006Z,1.52
2023-04-29T08:29:32.270Z,1.05
2023-04-29T08:34:12.637Z,1.10
2023-04-29T08:36:33.176Z,1.10
2023-04-29T08:38:53.566Z,1.10
2023-04-29T08:41:15.519Z,1.10
2023-04-29T08:43:40.043Z,0.90
2023-04-29T08:46:00.221Z,1.10
2023-04-29T08:48:21.382Z,0.90
2023-04-29T08:50:41.946Z,1.10
2023-04-29T08:53:02.152Z,1.00
2023-04-29T08:55:22.461Z,1.35
2023-04-29T08:57:43.434Z,1.10
2023-04-29T09:00:03.588Z,1.00
2023-04-29T09:02:25.388Z,1.10
2023-04-29T09:04:45.734Z,1.10
2023-04-29T09:07:07.604Z,1.75
2023-04-29T09:09:28.216Z,1.73
2023-04-29T09:11:48.716Z,1.52
2023-04-29T09:14:08.906Z,1.75
2023-04-29T09:16:29.412Z,1.30
2023-04-29T09:18:50.447Z,1.40
2023-04-29T09:21:13.880Z,1.35
2023-04-29T09:23:37.911Z,1.10
2023-04-29T09:25:58.241Z,1.63
2023-04-29T09:28:18.428Z,1.60
2023-04-29T09:30:46.586Z,1.20
2023-04-29T09:33:08.489Z,1.60
2023-04-29T09:35:28.585Z,1.70
2023-04-29T09:37:48.954Z,1.30
2023-04-29T09:40:29.765Z,1.50
2023-04-29T09:42:50.747Z,1.27
2023-04-29T09:45:11.979Z,1.10
2023-04-29T09:47:32.619Z,1.25
2023-04-29T09:49:53.091Z,2.00
2023-04-29T09:52:14.414Z,1.58
2023-04-29T09:54:35.707Z,1.70
2023-04-29T09:56:56.266Z,1.35
2023-04-29T09:59:16.779Z,1.58
2023-04-29T10:01:37.712Z,1.30
2023-04-29T10:03:58.304Z,2.00
2023-04-29T10:06:19.078Z,1.10
2023-04-29T10:08:40.913Z,1.27
2023-04-29T10:11:02.425Z,1.83
2023-04-29T10:13:26.124Z,1.20
2023-04-29T10:15:50.156Z,1.10
2023-04-29T10:18:10.544Z,1.17
2023-04-29T10:20:30.978Z,1.25
2023-04-29T10:22:55.827Z,1.20
2023-04-29T10:25:17.065Z,1.10
2023-04-29T10:27:37.745Z,1.30
2023-04-29T10:29:58.896Z,1.50
2023-04-29T10:32:23.225Z,1.15
2023-04-29T10:34:43.952Z,1.10
2023-04-29T10:37:03.931Z,1.20
2023-04-29T10:39:44.269Z,1.10
2023-04-29T10:42:06.416Z,1.15
2023-04-29T10:44:26.715Z,1.40
2023-04-29T10:46:46.987Z,1.10
2023-04-29T10:49:07.229Z,1.15
2023-04-29T10:51:36.466Z,1.38
2023-04-29T10:54:02.207Z,1.38
2023-04-29T10:56:22.562Z,1.60
2023-04-29T10:58:46.864Z,1.40
2023-04-29T11:01:09.710Z,1.23
2023-04-29T11:03:45.651Z,1.33
2023-04-29T11:06:09.481Z,1.60
2023-04-29T11:08:29.694Z,1.80
2023-04-29T11:10:53.480Z,1.65
2023-04-29T11:13:30.412Z,2.17
2023-04-29T11:15:51.738Z,2.30
2023-04-29T11:18:12.051Z,2.20
2023-04-29T11:20:52.251Z,1.95
2023-04-29T11:23:12.552Z,2.25
2023-04-29T11:25:32.615Z,1.92
2023-04-29T11:27:54.739Z,1.67
2023-04-29T11:30:16.103Z,2.35
2023-04-29T11:32:37.947Z,3.40
2023-04-29T11:35:14.693Z,3.10
2023-04-29T11:37:35.627Z,2.38
2023-04-29T11:39:59.740Z,2.33
2023-04-29T11:42:21.204Z,2.10
2023-04-29T11:44:41.183Z,2.28
2023-04-29T11:47:03.847Z,1.88
2023-04-29T11:49:27.790Z,2.97
2023-04-29T11:51:48.134Z,2.63
2023-04-29T11:54:08.328Z,2.70
2023-04-29T11:56:28.478Z,2.08
2023-04-29T11:58:48.825Z,2.55
2023-04-29T12:01:08.961Z,3.78
2023-04-29T12:03:29.358Z,2.65
2023-04-29T12:05:53.969Z,2.15
2023-04-29T12:08:14.503Z,2.28
2023-04-29T12:10:37.881Z,2.67
2023-04-29T12:12:58.287Z,2.13
2023-04-29T12:15:18.327Z,2.72
2023-04-29T12:17:39.406Z,2.22
2023-04-29T12:19:59.806Z,2.53
2023-04-29T12:22:20.110Z,2.25
2023-04-29T12:24:40.355Z,2.17
2023-04-29T12:27:00.814Z,2.85
2023-04-29T12:29:24.097Z,2.20
2023-04-29T12:31:47.447Z,1.70
2023-04-29T12:34:10.075Z,2.00
2023-04-29T12:36:32.190Z,2.28
2023-04-29T12:38:54.071Z,2.08
2023-04-29T12:41:16.488Z,2.00
2023-04-29T12:43:37.264Z,2.53
2023-04-29T12:46:02.402Z,2.92
2023-04-29T12:48:29.362Z,2.95
2023-04-29T12:50:51.892Z,3.30
2023-04-29T12:53:12.801Z,2.90
2023-04-29T12:55:34.363Z,1.80
2023-04-29T12:57:54.841Z,2.42
2023-04-29T13:00:15.035Z,1.92
2023-04-29T13:02:36.620Z,1.88
2023-04-29T13:04:57.224Z,2.17
2023-04-29T13:07:18.221Z,1.88
2023-04-29T13:09:41.007Z,1.70
2023-04-29T13:12:02.485Z,2.22
2023-04-29T13:14:22.825Z,1.77
2023-04-29T13:16:44.276Z,1.30
2023-04-29T13:19:18.061Z,1.20
2023-04-29T13:21:46.102Z,1.40
2023-04-29T13:24:06.954Z,1.30
2023-04-29T13:26:27.407Z,2.17
2023-04-29T13:28:47.262Z,1.10
2023-04-29T13:31:07.335Z,1.30
2023-04-29T13:33:27.440Z,1.35
2023-04-29T13:35:48.795Z,1.10
2023-04-29T13:38:09.265Z,1.45
2023-04-29T13:40:29.394Z,1.58
2023-04-29T13:42:53.311Z,1.88
2023-04-29T13:45:22.295Z,1.00
2023-04-29T13:48:03.765Z,1.00
2023-04-29T13:51:04.935Z,1.00
2023-04-29T13:56:23.426Z,1.10
2023-04-29T14:01:01.838Z,1.00
2023-04-29T14:03:12.217Z,1.00
2023-04-29T14:05:32.565Z,1.25
2023-04-29T14:07:52.985Z,1.10
2023-04-29T14:10:13.105Z,1.25
2023-04-29T14:12:33.235Z,1.20
2023-04-29T14:14:53.559Z,1.10
2023-04-29T14:17:13.957Z,1.00
2023-04-29T14:19:34.000Z,1.05
2023-04-29T14:21:54.021Z,1.10
2023-04-29T14:24:13.990Z,1.10
2023-04-29T14:26:34.183Z,1.00
2023-04-29T14:28:56.840Z,1.15
2023-04-29T14:31:17.834Z,1.20
2023-04-29T14:33:37.675Z,1.67
2023-04-29T14:35:57.856Z,1.77
2023-04-29T14:38:18.176Z,1.10
2023-04-29T14:40:38.574Z,1.20
2023-04-29T14:42:58.788Z,1.20
2023-04-29T14:45:18.899Z,1.52
2023-04-29T14:47:39.131Z,1.30
2023-04-29T14:49:59.406Z,2.28
2023-04-29T14:52:19.518Z,2.53
2023-04-29T14:54:39.632Z,2.13
2023-04-29T14:56:59.678Z,1.40
2023-04-29T14:59:19.797Z,1.98
2023-04-29T15:01:40.278Z,3.10
2023-04-29T15:04:00.755Z,7.35
2023-04-29T15:06:21.045Z,3.17
2023-04-29T15:08:41.109Z,1.50
2023-04-29T15:11:01.589Z,1.88
2023-04-29T15:13:22.109Z,1.45
2023-04-29T15:15:42.338Z,1.92
2023-04-29T15:18:03.220Z,1.65
2023-04-29T15:20:23.538Z,1.58
2023-04-29T15:22:44.003Z,1.63
2023-04-29T15:25:04.272Z,2.33
2023-04-29T15:27:24.729Z,1.88
2023-04-29T15:29:45.146Z,1.33
2023-04-29T15:32:05.574Z,2.03
2023-04-29T15:34:25.719Z,2.28
2023-04-29T15:36:46.318Z,2.20
2023-04-29T15:39:10.178Z,1.70
2023-04-29T15:41:30.410Z,2.28
2023-04-29T15:43:51.072Z,2.00
2023-04-29T15:46:11.684Z,3.08
2023-04-29T15:48:31.940Z,1.67
2023-04-29T15:50:53.204Z,2.17
2023-04-29T15:53:13.820Z,2.03
2023-04-29T15:55:34.773Z,3.83
2023-04-29T15:57:55.365Z,2.33
2023-04-29T16:00:15.720Z,2.03
2023-04-29T16:02:36.082Z,2.05
2023-04-29T16:04:56.455Z,2.50
2023-04-29T16:07:17.277Z,1.50
2023-04-29T16:09:37.693Z,1.67
2023-04-29T16:11:58.575Z,1.92
2023-04-29T16:14:18.562Z,2.38
2023-04-29T16:16:38.978Z,1.40
2023-04-29T16:18:59.101Z,2.20
2023-04-29T16:21:19.297Z,1.83
2023-04-29T16:23:39.642Z,2.85
2023-04-29T16:26:00.552Z,2.22
2023-04-29T16:28:21.195Z,1.95
2023-04-29T16:30:41.798Z,2.17
2023-04-29T16:33:02.358Z,2.00
2023-04-29T16:35:25.730Z,2.53
2023-04-29T16:37:46.522Z,2.20
2023-04-29T16:40:06.921Z,2.40
2023-04-29T16:42:27.531Z,1.90
2023-04-29T16:44:47.678Z,3.60
2023-04-29T16:47:08.171Z,2.10
2023-04-29T16:49:28.420Z,2.40
2023-04-29T16:51:49.192Z,2.40
2023-04-29T16:54:09.251Z,2.58
2023-04-29T16:56:29.677Z,2.33
2023-04-29T16:58:50.457Z,2.25
2023-04-29T17:01:10.949Z,2.47
2023-04-29T17:03:31.204Z,2.58
2023-04-29T17:05:51.929Z,3.63
2023-04-29T17:08:14.009Z,3.60
2023-04-29T17:10:34.486Z,2.88
2023-04-29T17:12:54.732Z,2.65
2023-04-29T17:15:15.831Z,3.97
2023-04-29T17:17:36.115Z,2.30
2023-04-29T17:19:57.591Z,4.25
2023-04-29T17:22:17.893Z,4.90
2023-04-29T17:24:38.040Z,3.58
2023-04-29T17:26:59.065Z,3.15
2023-04-29T17:29:19.202Z,2.75
2023-04-29T17:31:46.582Z,2.63
2023-04-29T17:34:18.017Z,2.35
2023-04-29T17:36:38.262Z,2.72
2023-04-29T17:38:59.098Z,2.10
2023-04-29T17:41:19.436Z,2.30
2023-04-29T17:43:40.343Z,2.55
2023-04-29T17:46:00.941Z,2.33
2023-04-29T17:48:21.865Z,2.97
2023-04-29T17:50:42.100Z,2.53
2023-04-29T17:53:02.224Z,2.30
2023-04-29T17:55:22.319Z,3.10
2023-04-29T17:57:42.578Z,4.95
2023-04-29T18:00:02.895Z,3.05
2023-04-29T18:02:23.337Z,3.47
2023-04-29T18:04:43.359Z,2.70
2023-04-29T18:07:03.736Z,2.60
2023-04-29T18:09:25.796Z,2.45
2023-04-29T18:11:46.443Z,2.80
2023-04-29T18:14:07.915Z,3.25
2023-04-29T18:16:29.205Z,3.65
2023-04-29T18:18:55.261Z,2.17
2023-04-29T18:21:21.806Z,2.85
2023-04-29T18:23:42.144Z,2.80
2023-04-29T18:26:02.728Z,3.45
2023-04-29T18:28:24.696Z,3.53
2023-04-29T18:30:49.611Z,3.75
2023-04-29T18:33:10.035Z,3.60
2023-04-29T18:35:30.374Z,3.53
2023-04-29T18:37:50.399Z,5.43
2023-04-29T18:40:10.608Z,2.55
2023-04-29T18:42:31.832Z,2.90
2023-04-29T18:44:52.170Z,2.35
2023-04-29T18:47:13.034Z,2.75
2023-04-29T18:49:34.359Z,3.00
2023-04-29T18:51:55.574Z,2.90
2023-04-29T18:54:16.754Z,4.95
2023-04-29T18:56:38.824Z,3.50
2023-04-29T18:59:00.191Z,3.13
2023-04-29T19:01:20.444Z,3.38
2023-04-29T19:03:41.353Z,4.07
2023-04-29T19:06:01.606Z,6.43
2023-04-29T19:08:22.051Z,5.25
2023-04-29T19:10:43.333Z,3.40
2023-04-29T19:13:03.442Z,3.60
2023-04-29T19:15:27.507Z,3.38
2023-04-29T19:17:47.848Z,2.47
2023-04-29T19:20:09.331Z,2.40
2023-04-29T19:22:29.721Z,2.30
2023-04-29T19:24:50.620Z,2.67
2023-04-29T19:27:11.456Z,3.28
2023-04-29T19:29:31.698Z,3.65
2023-04-29T19:31:52.686Z,3.78
2023-04-29T19:34:13.123Z,3.95
2023-04-29T19:36:33.496Z,3.50
2023-04-29T19:38:53.692Z,2.83
2023-04-29T19:41:13.744Z,2.53
2023-04-29T19:43:34.035Z,2.63
2023-04-29T19:45:54.216Z,2.10
2023-04-29T19:48:14.825Z,2.63
2023-04-29T19:50:35.368Z,2.42
2023-04-29T19:52:55.652Z,4.95
2023-04-29T19:55:16.495Z,6.80
2023-04-29T19:57:38.007Z,6.50
2023-04-29T19:59:58.312Z,6.22
2023-04-29T20:02:18.933Z,4.10
2023-04-29T20:04:39.144Z,3.47
2023-04-29T20:06:59.368Z,3.50
2023-04-29T20:09:19.724Z,4.85
2023-04-29T20:11:40.060Z,5.43
2023-04-29T20:14:00.202Z,4.70
2023-04-29T20:16:20.373Z,3.65
2023-04-29T20:18:41.021Z,5.03
2023-04-29T20:21:01.121Z,4.28
2023-04-29T20:23:21.127Z,4.30
2023-04-29T20:25:41.662Z,4.47
2023-04-29T20:28:02.124Z,5.07
2023-04-29T20:30:22.657Z,3.60
2023-04-29T20:32:43.223Z,4.90
2023-04-29T20:35:03.786Z,4.53
2023-04-29T20:37:24.453Z,4.47
2023-04-29T20:39:44.725Z,4.78
2023-04-29T20:42:04.764Z,3.72
2023-04-29T20:44:24.899Z,3.45
2023-04-29T20:46:45.437Z,2.70
2023-04-29T20:49:05.750Z,3.53
2023-04-29T20:51:26.149Z,3.50
2023-04-29T20:53:46.557Z,3.72
2023-04-29T20:56:08.295Z,3.80
2023-04-29T20:58:28.765Z,3.80
2023-04-29T21:00:48.739Z,3.17
2023-04-29T21:03:09.001Z,2.78
2023-04-29T21:05:29.129Z,4.88
2023-04-29T21:07:49.381Z,4.80
2023-04-29T21:10:09.633Z,5.05
2023-04-29T21:12:29.962Z,4.80
2023-04-29T21:14:49.923Z,5.50
2023-04-29T21:17:10.525Z,4.40
2023-04-29T21:19:30.818Z,4.53
2023-04-29T21:21:51.317Z,4.70
2023-04-29T21:24:11.515Z,4.47
2023-04-29T21:26:31.669Z,5.03
2023-04-29T21:28:51.924Z,4.68
2023-04-29T21:31:15.536Z,4.53
2023-04-29T21:33:35.639Z,4.28
2023-04-29T21:35:55.686Z,4.70
2023-04-29T21:38:15.730Z,4.32
2023-04-29T21:40:38.739Z,4.28
2023-04-29T21:42:59.434Z,4.13
2023-04-29T21:45:19.492Z,3.22
2023-04-29T21:47:39.935Z,4.18
2023-04-29T21:50:00.586Z,3.33
2023-04-29T21:52:20.894Z,2.75
2023-04-29T21:54:41.060Z,3.80
2023-04-29T21:57:02.322Z,2.95
2023-04-29T21:59:22.780Z,2.90
2023-04-29T22:01:42.981Z,3.30
2023-04-29T22:04:03.436Z,3.00
2023-04-29T22:06:24.009Z,3.50
2023-04-29T22:08:43.995Z,2.67
2023-04-29T22:11:04.480Z,3.42
2023-04-29T22:13:24.801Z,3.65
2023-04-29T22:15:45.152Z,3.20
2023-04-29T22:18:05.343Z,4.07
2023-04-29T22:20:25.686Z,3.28
2023-04-29T22:22:45.759Z,4.47
2023-04-29T22:25:06.377Z,3.35
2023-04-29T22:27:26.403Z,4.90
2023-04-29T22:29:46.705Z,4.20
2023-04-29T22:32:07.110Z,3.95
2023-04-29T22:34:27.109Z,3.88
2023-04-29T22:36:47.682Z,5.28
2023-04-29T22:39:07.890Z,4.45
2023-04-29T22:41:27.981Z,4.68
2023-04-29T22:43:48.281Z,4.05
2023-04-29T22:46:08.850Z,4.43
2023-04-29T22:48:29.744Z,5.40
2023-04-29T22:50:53.970Z,4.93
2023-04-29T22:53:14.403Z,4.45
2023-04-29T22:55:34.567Z,4.70
2023-04-29T22:57:54.873Z,4.28
2023-04-29T23:00:15.742Z,4.65
2023-04-29T23:02:35.957Z,4.28
2023-04-29T23:04:59.443Z,4.72
2023-04-29T23:07:19.622Z,4.07
2023-04-29T23:09:39.844Z,4.07
2023-04-29T23:12:00.454Z,3.95
2023-04-29T23:14:21.017Z,4.13
2023-04-29T23:16:41.353Z,2.65
2023-04-29T23:19:01.688Z,5.00
2023-04-29T23:21:21.869Z,3.75
2023-04-29T23:23:42.171Z,3.38
2023-04-29T23:26:02.208Z,3.88
2023-04-29T23:28:23.990Z,5.65
2023-04-29T23:30:46.269Z,4.35
2023-04-29T23:33:06.738Z,5.70
2023-04-29T23:35:27.037Z,4.68
2023-04-29T23:37:47.152Z,3.65
2023-04-29T23:40:08.504Z,3.97
2023-04-29T23:42:28.570Z,4.20
2023-04-29T23:44:49.154Z,4.30
2023-04-29T23:47:10.824Z,5.55
2023-04-29T23:49:30.881Z,5.03
2023-04-29T23:51:50.856Z,5.65
2023-04-29T23:54:11.087Z,5.13
2023-04-29T23:56:32.987Z,5.78
2023-04-29T23:58:53.113Z,4.93
